createdAt,value
2023-03-12T00:00:25.045Z,-0.91
2023-03-12T00:04:12.167Z,-0.94
2023-03-12T00:07:39.731Z,-0.97
2023-03-12T00:11:11.763Z,-0.99
2023-03-12T00:14:39.019Z,-1.00
2023-03-12T00:18:06.375Z,-1.01
2023-03-12T00:21:33.665Z,-1.02
2023-03-12T00:25:01.071Z,-1.04
2023-03-12T00:28:28.311Z,-1.05
2023-03-12T00:31:55.506Z,-1.05
2023-03-12T00:35:22.926Z,-1.05
2023-03-12T00:38:50.371Z,-1.03
2023-03-12T00:42:17.626Z,-1.03
2023-03-12T00:45:44.672Z,-1.03
2023-03-12T00:49:11.785Z,-1.03
2023-03-12T00:52:38.831Z,-1.03
2023-03-12T00:56:06.682Z,-1.05
2023-03-12T00:59:33.745Z,-1.02
2023-03-12T01:03:00.933Z,-1.03
2023-03-12T01:06:28.284Z,-1.02
2023-03-12T01:09:55.439Z,-0.99
2023-03-12T01:13:22.738Z,-0.93
2023-03-12T01:16:52.411Z,-0.87
2023-03-12T01:20:23.385Z,-0.83
2023-03-12T01:23:51.661Z,-0.80
2023-03-12T01:27:18.715Z,-0.77
2023-03-12T01:30:46.178Z,-0.74
2023-03-12T01:34:13.789Z,-0.73
2023-03-12T01:37:40.867Z,-0.70
2023-03-12T01:41:08.071Z,-0.68
2023-03-12T01:44:52.519Z,-0.66
2023-03-12T01:48:21.239Z,-0.64
2023-03-12T01:51:51.772Z,-0.62
2023-03-12T01:55:20.140Z,-0.60
2023-03-12T01:58:52.218Z,-0.56
2023-03-12T02:02:25.008Z,-0.50
2023-03-12T02:05:57.130Z,-0.45
2023-03-12T02:09:24.735Z,-0.41
2023-03-12T02:12:52.311Z,-0.36
2023-03-12T02:16:21.012Z,-0.32
2023-03-12T02:19:58.946Z,-0.27
2023-03-12T02:23:32.227Z,-0.28
2023-03-12T02:27:00.473Z,-0.33
2023-03-12T02:30:29.937Z,-0.37
2023-03-12T02:33:56.477Z,-0.40
2023-03-12T02:37:23.734Z,-0.42
2023-03-12T02:40:52.536Z,-0.42
2023-03-12T02:44:23.104Z,-0.39
2023-03-12T02:47:51.471Z,-0.35
2023-03-12T02:51:18.718Z,-0.29
2023-03-12T02:54:46.334Z,-0.23
2023-03-12T02:58:13.439Z,-0.19
2023-03-12T03:01:40.680Z,-0.14
2023-03-12T03:05:09.816Z,-0.12
2023-03-12T03:08:36.910Z,-0.10
2023-03-12T03:12:04.026Z,-0.08
2023-03-12T03:15:32.551Z,-0.07
2023-03-12T03:18:59.823Z,-0.07
2023-03-12T03:22:26.962Z,-0.08
2023-03-12T03:25:54.535Z,-0.10
2023-03-12T03:29:21.863Z,-0.16
2023-03-12T03:32:49.309Z,-0.25
2023-03-12T03:36:17.627Z,-0.35
2023-03-12T03:39:54.514Z,-0.45
2023-03-12T03:43:22.100Z,-0.54
2023-03-12T03:46:49.586Z,-0.63
2023-03-12T03:50:17.169Z,-0.70
2023-03-12T03:53:44.234Z,-0.77
2023-03-12T03:57:11.388Z,-0.82
2023-03-12T04:00:39.810Z,-0.86
2023-03-12T04:04:07.426Z,-0.90
2023-03-12T04:07:35.447Z,-0.93
2023-03-12T04:11:07.635Z,-0.95
2023-03-12T04:14:34.893Z,-0.97
2023-03-12T04:18:02.241Z,-0.95
2023-03-12T04:21:30.238Z,-0.90
2023-03-12T04:24:58.113Z,-0.83
2023-03-12T04:28:25.478Z,-0.76
2023-03-12T04:31:53.470Z,-0.70
2023-03-12T04:35:20.914Z,-0.65
2023-03-12T04:38:48.282Z,-0.60
2023-03-12T04:42:16.347Z,-0.55
2023-03-12T04:45:44.149Z,-0.51
2023-03-12T04:49:12.020Z,-0.47
2023-03-12T04:52:39.594Z,-0.45
2023-03-12T04:56:07.905Z,-0.49
2023-03-12T04:59:35.516Z,-0.57
2023-03-12T05:03:03.744Z,-0.67
2023-03-12T05:06:31.343Z,-0.74
2023-03-12T05:09:58.800Z,-0.81
2023-03-12T05:13:26.454Z,-0.87
2023-03-12T05:16:55.662Z,-0.91
2023-03-12T05:20:23.255Z,-0.94
2023-03-12T05:23:50.552Z,-0.96
2023-03-12T05:27:17.932Z,-0.96
2023-03-12T05:30:45.407Z,-0.93
2023-03-12T05:34:14.468Z,-0.87
2023-03-12T05:37:43.508Z,-0.78
2023-03-12T05:41:18.856Z,-0.69
2023-03-12T05:44:46.754Z,-0.64
2023-03-12T05:48:17.442Z,-0.60
2023-03-12T05:51:44.631Z,-0.59
2023-03-12T05:55:13.060Z,-0.60
2023-03-12T05:58:40.655Z,-0.50
2023-03-12T06:02:08.080Z,-0.25
2023-03-12T06:05:36.962Z,0.04
2023-03-12T06:09:04.028Z,0.36
2023-03-12T06:12:31.555Z,0.64
2023-03-12T06:16:05.523Z,0.86
2023-03-12T06:19:33.557Z,1.00
2023-03-12T06:23:01.845Z,1.16
2023-03-12T06:26:30.284Z,1.38
2023-03-12T06:29:57.392Z,1.46
2023-03-12T06:33:24.443Z,1.56
2023-03-12T06:36:51.598Z,1.80
2023-03-12T06:40:19.411Z,2.06
2023-03-12T06:43:47.114Z,2.33
2023-03-12T06:47:16.517Z,2.55
2023-03-12T06:50:45.019Z,2.76
2023-03-12T06:54:12.167Z,2.91
2023-03-12T06:57:39.437Z,3.02
2023-03-12T07:01:07.381Z,3.15
2023-03-12T07:04:34.407Z,3.29
2023-03-12T07:08:01.500Z,3.44
2023-03-12T07:11:28.771Z,3.57
2023-03-12T07:14:55.856Z,3.68
2023-03-12T07:18:22.872Z,3.71
2023-03-12T07:21:50.090Z,3.81
2023-03-12T07:25:19.071Z,3.86
2023-03-12T07:28:46.478Z,3.96
2023-03-12T07:32:13.498Z,4.06
2023-03-12T07:35:41.347Z,4.13
2023-03-12T07:39:09.037Z,4.20
2023-03-12T07:42:36.294Z,4.20
2023-03-12T07:46:03.667Z,4.18
2023-03-12T07:49:30.808Z,4.22
2023-03-12T07:52:57.880Z,4.29
2023-03-12T07:56:25.003Z,4.37
2023-03-12T07:59:52.493Z,4.41
2023-03-12T08:03:20.248Z,4.44
2023-03-12T08:06:49.112Z,4.49
2023-03-12T08:10:17.617Z,4.49
2023-03-12T08:13:45.417Z,4.53
2023-03-12T08:17:13.852Z,4.58
2023-03-12T08:20:41.458Z,4.52
2023-03-12T08:24:12.070Z,4.38
2023-03-12T08:27:39.657Z,4.21
2023-03-12T08:31:09.642Z,4.06
2023-03-12T08:34:37.564Z,3.97
2023-03-12T08:38:04.743Z,3.91
2023-03-12T08:41:32.316Z,3.92
2023-03-12T08:45:00.235Z,3.96
2023-03-12T08:48:28.968Z,4.03
2023-03-12T08:51:56.344Z,4.06
2023-03-12T08:55:24.347Z,4.10
2023-03-12T08:58:52.148Z,4.18
2023-03-12T09:02:19.547Z,4.20
2023-03-12T09:05:48.493Z,4.21
2023-03-12T09:09:16.343Z,4.30
2023-03-12T09:12:44.933Z,4.44
2023-03-12T09:16:12.618Z,4.61
2023-03-12T09:19:41.834Z,4.77
2023-03-12T09:23:08.119Z,4.89
2023-03-12T09:26:35.706Z,4.96
2023-03-12T09:30:03.718Z,5.02
2023-03-12T09:33:32.153Z,5.00
2023-03-12T09:36:59.819Z,5.02
2023-03-12T09:40:30.588Z,5.13
2023-03-12T09:44:04.414Z,5.25
2023-03-12T09:47:34.715Z,5.29
2023-03-12T09:51:07.013Z,5.34
2023-03-12T09:54:40.653Z,5.42
2023-03-12T09:58:14.639Z,5.46
2023-03-12T10:01:49.095Z,5.55
2023-03-12T10:05:25.442Z,5.72
2023-03-12T10:09:04.770Z,5.88
2023-03-12T10:12:47.074Z,5.87
2023-03-12T10:16:27.149Z,5.90
2023-03-12T10:20:10.492Z,6.02
2023-03-12T10:23:51.248Z,6.07
2023-03-12T10:27:19.786Z,6.21
2023-03-12T10:30:54.327Z,6.21
2023-03-12T10:34:26.877Z,6.11
2023-03-12T10:37:58.228Z,6.06
2023-03-12T10:41:27.420Z,6.06
2023-03-12T10:44:59.699Z,6.00
2023-03-12T10:48:28.491Z,6.00
2023-03-12T10:52:01.032Z,6.20
2023-03-12T10:55:31.268Z,6.39
2023-03-12T10:58:59.953Z,6.45
2023-03-12T11:02:34.323Z,6.53
2023-03-12T11:06:03.279Z,6.68
2023-03-12T11:09:30.454Z,6.76
2023-03-12T11:13:01.074Z,6.75
2023-03-12T11:16:32.087Z,6.68
2023-03-12T11:19:59.483Z,6.63
2023-03-12T11:23:30.930Z,6.58
2023-03-12T11:27:06.723Z,6.61
2023-03-12T11:30:39.918Z,6.62
2023-03-12T11:34:09.657Z,6.60
2023-03-12T11:37:51.167Z,6.52
2023-03-12T11:41:36.723Z,6.42
2023-03-12T11:45:16.389Z,6.31
2023-03-12T11:48:51.164Z,6.24
2023-03-12T11:52:28.602Z,6.15
2023-03-12T11:56:13.591Z,6.11
2023-03-12T11:59:54.893Z,6.12
2023-03-12T12:03:40.834Z,6.17
2023-03-12T12:07:18.193Z,6.22
2023-03-12T12:10:54.127Z,6.30
2023-03-12T12:14:36.494Z,6.46
2023-03-12T12:18:19.290Z,6.55
2023-03-12T12:21:58.239Z,6.64
2023-03-12T12:25:41.350Z,6.76
2023-03-12T12:29:33.755Z,6.83
2023-03-12T12:33:18.384Z,6.82
2023-03-12T12:36:49.229Z,6.82
2023-03-12T12:40:23.959Z,6.87
2023-03-12T12:43:54.164Z,6.90
2023-03-12T12:47:27.195Z,6.93
2023-03-12T12:50:55.584Z,6.98
2023-03-12T12:54:33.258Z,7.04
2023-03-12T12:58:04.426Z,7.09
2023-03-12T13:01:33.727Z,7.17
2023-03-12T13:05:02.743Z,7.25
2023-03-12T13:08:58.388Z,7.30
2023-03-12T13:12:34.884Z,7.28
2023-03-12T13:16:31.639Z,7.34
2023-03-12T13:20:11.024Z,7.50
2023-03-12T13:23:46.849Z,7.54
2023-03-12T13:27:20.878Z,7.61
2023-03-12T13:30:54.397Z,7.65
2023-03-12T13:34:53.550Z,7.63
2023-03-12T13:38:38.471Z,7.58
2023-03-12T13:42:36.275Z,7.56
2023-03-12T13:46:07.080Z,7.65
2023-03-12T13:49:42.952Z,7.72
2023-03-12T13:53:17.170Z,7.76
2023-03-12T13:56:56.515Z,7.84
2023-03-12T14:00:30.276Z,7.87
2023-03-12T14:04:00.175Z,7.77
2023-03-12T14:07:57.750Z,7.68
2023-03-12T14:11:41.032Z,7.58
2023-03-12T14:15:28.782Z,7.54
2023-03-12T14:18:56.198Z,7.45
2023-03-12T14:22:24.852Z,7.30
2023-03-12T14:25:56.627Z,7.14
2023-03-12T14:29:28.280Z,7.05
2023-03-12T14:33:01.244Z,6.96
2023-03-12T14:36:33.399Z,6.86
2023-03-12T14:40:04.321Z,6.82
2023-03-12T14:43:34.240Z,6.77
2023-03-12T14:47:00.994Z,6.74
2023-03-12T14:50:31.010Z,6.65
2023-03-12T14:54:03.347Z,6.58
2023-03-12T14:57:30.764Z,6.56
2023-03-12T15:01:02.544Z,6.50
2023-03-12T15:04:31.184Z,6.38
2023-03-12T15:08:04.182Z,6.25
2023-03-12T15:11:33.369Z,6.15
2023-03-12T15:15:08.284Z,6.05
2023-03-12T15:18:36.078Z,6.00
2023-03-12T15:22:04.571Z,5.95
2023-03-12T15:25:34.111Z,5.89
2023-03-12T15:29:03.895Z,5.83
2023-03-12T15:32:32.074Z,5.73
2023-03-12T15:36:04.754Z,5.65
2023-03-12T15:39:34.526Z,5.58
2023-03-12T15:43:03.657Z,5.52
2023-03-12T15:46:31.265Z,5.47
2023-03-12T15:50:02.367Z,5.45
2023-03-12T15:53:32.437Z,5.41
2023-03-12T15:57:19.940Z,5.37
2023-03-12T16:00:49.275Z,5.29
2023-03-12T16:04:16.629Z,5.23
2023-03-12T16:07:43.910Z,5.17
2023-03-12T16:11:18.383Z,5.09
2023-03-12T16:14:47.474Z,5.00
2023-03-12T16:18:18.855Z,4.91
2023-03-12T16:21:46.649Z,4.83
2023-03-12T16:25:14.654Z,4.76
2023-03-12T16:28:43.247Z,4.67
2023-03-12T16:32:16.833Z,4.61
2023-03-12T16:35:44.472Z,4.53
2023-03-12T16:39:11.580Z,4.47
2023-03-12T16:42:39.546Z,4.41
2023-03-12T16:46:11.004Z,4.33
2023-03-12T16:49:38.452Z,4.25
2023-03-12T16:53:06.180Z,4.20
2023-03-12T16:56:33.294Z,4.14
2023-03-12T17:00:01.457Z,4.08
2023-03-12T17:03:36.386Z,4.02
2023-03-12T17:07:04.316Z,3.96
2023-03-12T17:10:31.303Z,3.91
2023-03-12T17:14:01.304Z,3.86
2023-03-12T17:17:28.623Z,3.80
2023-03-12T17:20:56.590Z,3.75
2023-03-12T17:24:28.185Z,3.71
2023-03-12T17:27:56.518Z,3.69
2023-03-12T17:31:24.745Z,3.66
2023-03-12T17:34:59.866Z,3.63
2023-03-12T17:38:27.360Z,3.62
2023-03-12T17:41:54.464Z,3.60
2023-03-12T17:45:24.023Z,3.59
2023-03-12T17:48:49.583Z,3.58
2023-03-12T17:52:16.755Z,3.57
2023-03-12T17:55:44.097Z,3.56
2023-03-12T17:59:11.253Z,3.54
2023-03-12T18:02:38.945Z,3.54
2023-03-12T18:06:07.262Z,3.54
2023-03-12T18:09:34.601Z,3.54
2023-03-12T18:13:01.870Z,3.54
2023-03-12T18:16:29.235Z,3.54
2023-03-12T18:19:56.976Z,3.55
2023-03-12T18:23:26.145Z,3.59
2023-03-12T18:26:54.514Z,3.61
2023-03-12T18:30:25.353Z,3.64
2023-03-12T18:33:53.494Z,3.66
2023-03-12T18:37:23.101Z,3.66
2023-03-12T18:40:51.419Z,3.67
2023-03-12T18:44:18.860Z,3.68
2023-03-12T18:47:50.358Z,3.70
2023-03-12T18:51:17.434Z,3.71
2023-03-12T18:54:44.924Z,3.74
2023-03-12T18:58:11.900Z,3.75
2023-03-12T19:01:39.019Z,3.76
2023-03-12T19:05:08.095Z,3.75
2023-03-12T19:08:38.392Z,3.72
2023-03-12T19:12:07.541Z,3.71
2023-03-12T19:15:38.129Z,3.70
2023-03-12T19:19:05.490Z,3.69
2023-03-12T19:22:32.594Z,3.69
2023-03-12T19:25:59.703Z,3.68
2023-03-12T19:29:27.242Z,3.67
2023-03-12T19:32:54.542Z,3.66
2023-03-12T19:36:21.692Z,3.63
2023-03-12T19:39:49.015Z,3.61
2023-03-12T19:43:16.111Z,3.60
2023-03-12T19:46:43.352Z,3.57
2023-03-12T19:50:13.017Z,3.56
2023-03-12T19:53:39.090Z,3.54
2023-03-12T19:57:07.368Z,3.53
2023-03-12T20:00:34.827Z,3.52
2023-03-12T20:04:08.033Z,3.53
2023-03-12T20:07:35.590Z,3.54
2023-03-12T20:11:07.894Z,3.53
2023-03-12T20:14:35.574Z,3.54
2023-03-12T20:18:02.991Z,3.53
2023-03-12T20:21:30.849Z,3.51
2023-03-12T20:24:58.225Z,3.47
2023-03-12T20:28:25.831Z,3.41
2023-03-12T20:31:53.348Z,3.35
2023-03-12T20:35:21.222Z,3.29
2023-03-12T20:38:50.809Z,3.26
2023-03-12T20:42:17.997Z,3.23
2023-03-12T20:45:48.169Z,3.19
2023-03-12T20:49:15.557Z,3.13
2023-03-12T20:52:43.871Z,3.06
2023-03-12T20:56:11.689Z,3.01
2023-03-12T20:59:38.664Z,2.96
2023-03-12T21:03:05.670Z,2.94
2023-03-12T21:06:32.707Z,2.91
2023-03-12T21:09:59.976Z,2.88
2023-03-12T21:13:27.791Z,2.84
2023-03-12T21:16:54.936Z,2.80
2023-03-12T21:20:23.577Z,2.74
2023-03-12T21:23:50.911Z,2.68
2023-03-12T21:27:18.097Z,2.59
2023-03-12T21:30:45.516Z,2.50
2023-03-12T21:34:12.721Z,2.42
2023-03-12T21:37:39.880Z,2.34
2023-03-12T21:41:10.111Z,2.27
2023-03-12T21:44:39.471Z,2.20
2023-03-12T21:48:07.312Z,2.16
2023-03-12T21:51:34.400Z,2.12
2023-03-12T21:55:01.437Z,2.08
2023-03-12T21:58:29.306Z,2.06
2023-03-12T22:01:56.651Z,2.02
2023-03-12T22:05:23.823Z,1.97
2023-03-12T22:08:52.415Z,1.92
2023-03-12T22:12:19.506Z,1.86
2023-03-12T22:15:54.008Z,1.79
2023-03-12T22:19:21.723Z,1.74
2023-03-12T22:22:48.903Z,1.69
2023-03-12T22:26:16.864Z,1.66
2023-03-12T22:29:43.982Z,1.63
2023-03-12T22:33:11.673Z,1.59
2023-03-12T22:36:41.898Z,1.55
2023-03-12T22:40:11.849Z,1.52
2023-03-12T22:43:38.837Z,1.49
2023-03-12T22:47:06.252Z,1.47
2023-03-12T22:50:34.123Z,1.47
2023-03-12T22:54:01.557Z,1.46
2023-03-12T22:57:29.015Z,1.46
2023-03-12T23:01:02.165Z,1.46
2023-03-12T23:04:29.776Z,1.47
2023-03-12T23:07:56.962Z,1.47
2023-03-12T23:11:25.713Z,1.47
2023-03-12T23:14:53.512Z,1.48
2023-03-12T23:18:21.210Z,1.50
2023-03-12T23:21:48.203Z,1.51
2023-03-12T23:25:15.509Z,1.53
2023-03-12T23:28:42.602Z,1.55
2023-03-12T23:32:10.706Z,1.56
2023-03-12T23:35:38.245Z,1.58
2023-03-12T23:39:05.771Z,1.60
2023-03-12T23:42:33.225Z,1.61
2023-03-12T23:46:02.176Z,1.62
2023-03-12T23:49:30.046Z,1.64
2023-03-12T23:52:58.391Z,1.68
2023-03-12T23:56:28.139Z,1.71
2023-03-12T23:59:55.263Z,1.72
